sensor_id;sensor_type;location;lat;lon;timestamp;P1;durP1;ratioP1;P2;durP2;ratioP2
12459;SDS011;6295;49.452;8.466;2023-04-06T04:14:55;11.80;;;9.47;;
12459;SDS011;6295;49.452;8.466;2023-04-06T04:18:57;12.40;;;9.27;;
12459;SDS011;6295;49.452;8.466;2023-04-06T04:23:00;12.07;;;8.97;;
12459;SDS011;6295;49.452;8.466;2023-04-06T04:27:02;11.67;;;8.67;;
12459;SDS011;6295;49.452;8.466;2023-04-06T04:31:09;11.27;;;8.63;;
12459;SDS011;6295;49.452;8.466;2023-04-06T04:35:14;10.77;;;8.17;;
12459;SDS011;6295;49.452;8.466;2023-04-06T04:39:18;12.83;;;9.33;;
12459;SDS011;6295;49.452;8.466;2023-04-06T04:43:23;11.10;;;8.63;;
12459;SDS011;6295;49.452;8.466;2023-04-06T04:47:28;12.67;;;8.53;;
12459;SDS011;6295;49.452;8.466;2023-04-06T04:51:33;12.00;;;9.00;;
12459;SDS011;6295;49.452;8.466;2023-04-06T04:55:36;11.07;;;8.47;;
12459;SDS011;6295;49.452;8.466;2023-04-06T04:59:38;11.90;;;8.43;;
12459;SDS011;6295;49.452;8.466;2023-04-06T05:03:41;11.07;;;8.33;;
12459;SDS011;6295;49.452;8.466;2023-04-06T05:07:44;11.07;;;8.77;;
12459;SDS011;6295;49.452;8.466;2023-04-06T05:11:46;11.23;;;8.30;;
12459;SDS011;6295;49.452;8.466;2023-04-06T05:15:48;13.60;;;9.43;;
12459;SDS011;6295;49.452;8.466;2023-04-06T05:19:52;11.33;;;8.60;;
12459;SDS011;6295;49.452;8.466;2023-04-06T05:23:54;11.17;;;8.67;;
12459;SDS011;6295;49.452;8.466;2023-04-06T05:27:56;11.63;;;8.57;;
12459;SDS011;6295;49.452;8.466;2023-04-06T05:31:58;10.23;;;8.47;;
12459;SDS011;6295;49.452;8.466;2023-04-06T05:36:02;13.17;;;8.63;;
12459;SDS011;6295;49.452;8.466;2023-04-06T05:40:07;10.67;;;7.83;;
12459;SDS011;6295;49.452;8.466;2023-04-06T05:44:10;11.13;;;8.07;;
12459;SDS011;6295;49.452;8.466;2023-04-06T05:48:12;11.43;;;8.63;;
12459;SDS011;6295;49.452;8.466;2023-04-06T05:52:16;12.80;;;9.13;;
12459;SDS011;6295;49.452;8.466;2023-04-06T05:56:21;11.60;;;9.23;;
12459;SDS011;6295;49.452;8.466;2023-04-06T06:00:26;13.13;;;9.10;;
12459;SDS011;6295;49.452;8.466;2023-04-06T06:04:30;12.27;;;8.90;;
12459;SDS011;6295;49.452;8.466;2023-04-06T06:08:36;8.83;;;7.80;;
12459;SDS011;6295;49.452;8.466;2023-04-06T06:12:38;10.73;;;8.40;;
12459;SDS011;6295;49.452;8.466;2023-04-06T06:16:40;11.20;;;7.90;;
12459;SDS011;6295;49.452;8.466;2023-04-06T06:20:43;10.73;;;7.73;;
12459;SDS011;6295;49.452;8.466;2023-04-06T06:24:49;11.07;;;8.67;;
12459;SDS011;6295;49.452;8.466;2023-04-06T06:28:53;11.03;;;8.27;;
12459;SDS011;6295;49.452;8.466;2023-04-06T06:32:55;10.70;;;8.47;;
12459;SDS011;6295;49.452;8.466;2023-04-06T06:36:57;10.80;;;8.97;;
12459;SDS011;6295;49.452;8.466;2023-04-06T06:41:02;9.70;;;7.77;;
12459;SDS011;6295;49.452;8.466;2023-04-06T06:45:04;10.17;;;8.30;;
12459;SDS011;6295;49.452;8.466;2023-04-06T06:49:08;12.90;;;8.90;;
12459;SDS011;6295;49.452;8.466;2023-04-06T06:53:12;9.23;;;7.80;;
12459;SDS011;6295;49.452;8.466;2023-04-06T06:57:16;9.23;;;7.70;;
12459;SDS011;6295;49.452;8.466;2023-04-06T07:01:21;11.00;;;8.40;;
12459;SDS011;6295;49.452;8.466;2023-04-06T07:05:25;10.60;;;8.60;;
12459;SDS011;6295;49.452;8.466;2023-04-06T07:09:30;12.87;;;9.27;;
12459;SDS011;6295;49.452;8.466;2023-04-06T07:13:39;9.83;;;8.33;;
12459;SDS011;6295;49.452;8.466;2023-04-06T07:17:44;11.53;;;9.00;;
12459;SDS011;6295;49.452;8.466;2023-04-06T07:21:50;10.07;;;8.40;;
12459;SDS011;6295;49.452;8.466;2023-04-06T07:25:56;13.73;;;9.77;;
12459;SDS011;6295;49.452;8.466;2023-04-06T07:30:02;11.63;;;9.17;;
12459;SDS011;6295;49.452;8.466;2023-04-06T07:34:04;11.67;;;9.23;;
12459;SDS011;6295;49.452;8.466;2023-04-06T07:38:11;10.40;;;8.40;;
12459;SDS011;6295;49.452;8.466;2023-04-06T07:42:14;11.07;;;8.93;;
12459;SDS011;6295;49.452;8.466;2023-04-06T07:46:18;11.17;;;9.00;;
12459;SDS011;6295;49.452;8.466;2023-04-06T07:50:20;11.93;;;9.37;;
12459;SDS011;6295;49.452;8.466;2023-04-06T07:54:22;12.30;;;10.10;;
12459;SDS011;6295;49.452;8.466;2023-04-06T07:58:25;11.70;;;9.60;;
12459;SDS011;6295;49.452;8.466;2023-04-06T08:02:28;11.80;;;9.83;;
12459;SDS011;6295;49.452;8.466;2023-04-06T08:06:31;11.47;;;9.33;;
12459;SDS011;6295;49.452;8.466;2023-04-06T08:10:34;11.70;;;9.67;;
12459;SDS011;6295;49.452;8.466;2023-04-06T08:14:36;10.37;;;9.20;;
12459;SDS011;6295;49.452;8.466;2023-04-06T08:18:40;11.33;;;9.50;;
12459;SDS011;6295;49.452;8.466;2023-04-06T08:22:42;11.37;;;9.73;;
12459;SDS011;6295;49.452;8.466;2023-04-06T08:26:46;10.97;;;9.63;;
12459;SDS011;6295;49.452;8.466;2023-04-06T08:30:49;10.47;;;9.27;;
12459;SDS011;6295;49.452;8.466;2023-04-06T08:34:57;10.70;;;9.50;;
12459;SDS011;6295;49.452;8.466;2023-04-06T08:38:59;10.73;;;8.87;;
12459;SDS011;6295;49.452;8.466;2023-04-06T08:43:02;11.37;;;8.97;;
12459;SDS011;6295;49.452;8.466;2023-04-06T08:47:08;10.40;;;9.27;;
12459;SDS011;6295;49.452;8.466;2023-04-06T08:51:12;10.80;;;9.70;;
12459;SDS011;6295;49.452;8.466;2023-04-06T08:55:17;10.07;;;8.70;;
12459;SDS011;6295;49.452;8.466;2023-04-06T08:59:23;11.33;;;8.87;;
12459;SDS011;6295;49.452;8.466;2023-04-06T09:03:28;9.40;;;8.40;;
12459;SDS011;6295;49.452;8.466;2023-04-06T09:07:36;9.80;;;8.00;;
12459;SDS011;6295;49.452;8.466;2023-04-06T09:11:42;9.47;;;8.17;;
12459;SDS011;6295;49.452;8.466;2023-04-06T09:15:57;8.07;;;7.27;;
12459;SDS011;6295;49.452;8.466;2023-04-06T09:20:03;9.70;;;8.33;;
12459;SDS011;6295;49.452;8.466;2023-04-06T09:24:09;9.67;;;8.37;;
12459;SDS011;6295;49.452;8.466;2023-04-06T09:28:11;9.60;;;8.57;;
12459;SDS011;6295;49.452;8.466;2023-04-06T09:32:14;9.47;;;8.47;;
12459;SDS011;6295;49.452;8.466;2023-04-06T09:36:17;10.03;;;7.80;;
12459;SDS011;6295;49.452;8.466;2023-04-06T09:40:22;9.37;;;7.83;;
12459;SDS011;6295;49.452;8.466;2023-04-06T09:44:29;8.60;;;7.37;;
12459;SDS011;6295;49.452;8.466;2023-04-06T09:48:32;9.27;;;7.93;;
12459;SDS011;6295;49.452;8.466;2023-04-06T09:52:37;8.60;;;7.67;;
12459;SDS011;6295;49.452;8.466;2023-04-06T09:56:45;8.53;;;7.63;;
12459;SDS011;6295;49.452;8.466;2023-04-06T10:00:51;8.73;;;7.83;;
12459;SDS011;6295;49.452;8.466;2023-04-06T10:04:58;9.23;;;8.20;;
12459;SDS011;6295;49.452;8.466;2023-04-06T10:09:05;10.43;;;9.33;;
12459;SDS011;6295;49.452;8.466;2023-04-06T10:13:14;8.67;;;7.83;;
12459;SDS011;6295;49.452;8.466;2023-04-06T10:17:19;10.07;;;7.47;;
12459;SDS011;6295;49.452;8.466;2023-04-06T10:21:21;8.07;;;7.27;;
12459;SDS011;6295;49.452;8.466;2023-04-06T10:25:27;8.30;;;7.33;;
12459;SDS011;6295;49.452;8.466;2023-04-06T10:29:41;8.23;;;7.37;;
12459;SDS011;6295;49.452;8.466;2023-04-06T10:33:53;8.50;;;7.60;;
12459;SDS011;6295;49.452;8.466;2023-04-06T10:38:00;10.47;;;8.13;;
12459;SDS011;6295;49.452;8.466;2023-04-06T10:42:06;9.00;;;7.37;;
12459;SDS011;6295;49.452;8.466;2023-04-06T10:46:10;9.17;;;7.77;;
12459;SDS011;6295;49.452;8.466;2023-04-06T10:50:12;9.70;;;8.33;;
12459;SDS011;6295;49.452;8.466;2023-04-06T10:54:16;9.03;;;7.60;;
12459;SDS011;6295;49.452;8.466;2023-04-06T10:58:19;10.67;;;8.03;;
12459;SDS011;6295;49.452;8.466;2023-04-06T11:02:22;8.00;;;7.20;;
12459;SDS011;6295;49.452;8.466;2023-04-06T11:06:25;8.47;;;7.30;;
12459;SDS011;6295;49.452;8.466;2023-04-06T11:10:29;7.70;;;6.77;;
12459;SDS011;6295;49.452;8.466;2023-04-06T11:14:31;8.20;;;6.50;;
12459;SDS011;6295;49.452;8.466;2023-04-06T11:18:35;7.23;;;6.53;;
12459;SDS011;6295;49.452;8.466;2023-04-06T11:22:47;8.23;;;6.47;;
12459;SDS011;6295;49.452;8.466;2023-04-06T11:26:50;8.10;;;6.90;;
12459;SDS011;6295;49.452;8.466;2023-04-06T11:30:54;8.97;;;7.47;;
12459;SDS011;6295;49.452;8.466;2023-04-06T11:34:58;6.83;;;6.10;;
12459;SDS011;6295;49.452;8.466;2023-04-06T11:39:00;8.13;;;7.33;;
12459;SDS011;6295;49.452;8.466;2023-04-06T11:43:04;7.17;;;6.47;;
12459;SDS011;6295;49.452;8.466;2023-04-06T11:47:07;8.50;;;7.53;;
12459;SDS011;6295;49.452;8.466;2023-04-06T11:51:13;8.00;;;7.20;;
12459;SDS011;6295;49.452;8.466;2023-04-06T11:55:25;8.47;;;7.63;;
12459;SDS011;6295;49.452;8.466;2023-04-06T11:59:32;9.30;;;7.40;;
12459;SDS011;6295;49.452;8.466;2023-04-06T12:03:39;7.80;;;7.00;;
12459;SDS011;6295;49.452;8.466;2023-04-06T12:07:46;8.27;;;7.43;;
12459;SDS011;6295;49.452;8.466;2023-04-06T12:11:50;10.67;;;7.80;;
12459;SDS011;6295;49.452;8.466;2023-04-06T12:15:52;10.57;;;8.20;;
12459;SDS011;6295;49.452;8.466;2023-04-06T12:19:54;9.63;;;8.63;;
12459;SDS011;6295;49.452;8.466;2023-04-06T12:24:00;9.97;;;8.07;;
12459;SDS011;6295;49.452;8.466;2023-04-06T12:28:04;8.57;;;7.60;;
12459;SDS011;6295;49.452;8.466;2023-04-06T12:32:07;8.77;;;7.87;;
12459;SDS011;6295;49.452;8.466;2023-04-06T12:36:11;8.30;;;7.40;;
12459;SDS011;6295;49.452;8.466;2023-04-06T12:40:16;9.70;;;8.60;;
12459;SDS011;6295;49.452;8.466;2023-04-06T12:44:18;11.33;;;8.70;;
12459;SDS011;6295;49.452;8.466;2023-04-06T12:48:20;9.27;;;7.87;;
12459;SDS011;6295;49.452;8.466;2023-04-06T12:52:22;9.83;;;8.17;;
12459;SDS011;6295;49.452;8.466;2023-04-06T12:56:27;9.20;;;7.47;;
12459;SDS011;6295;49.452;8.466;2023-04-06T13:00:33;7.97;;;7.13;;
12459;SDS011;6295;49.452;8.466;2023-04-06T13:04:37;8.80;;;7.87;;
12459;SDS011;6295;49.452;8.466;2023-04-06T13:08:40;9.80;;;8.33;;
12459;SDS011;6295;49.452;8.466;2023-04-06T13:12:46;8.30;;;7.40;;
12459;SDS011;6295;49.452;8.466;2023-04-06T13:16:48;7.47;;;6.70;;
12459;SDS011;6295;49.452;8.466;2023-04-06T13:20:51;6.83;;;5.90;;
12459;SDS011;6295;49.452;8.466;2023-04-06T13:24:55;7.37;;;6.37;;
12459;SDS011;6295;49.452;8.466;2023-04-06T13:28:59;7.63;;;6.83;;
12459;SDS011;6295;49.452;8.466;2023-04-06T13:33:02;8.93;;;6.87;;
12459;SDS011;6295;49.452;8.466;2023-04-06T13:37:06;7.73;;;6.50;;
12459;SDS011;6295;49.452;8.466;2023-04-06T13:41:09;6.00;;;5.40;;
12459;SDS011;6295;49.452;8.466;2023-04-06T13:45:14;7.40;;;6.17;;
12459;SDS011;6295;49.452;8.466;2023-04-06T13:49:16;6.90;;;6.03;;
12459;SDS011;6295;49.452;8.466;2023-04-06T13:53:18;6.30;;;5.60;;
12459;SDS011;6295;49.452;8.466;2023-04-06T13:57:21;6.37;;;5.00;;
12459;SDS011;6295;49.452;8.466;2023-04-06T14:01:24;6.20;;;5.60;;
12459;SDS011;6295;49.452;8.466;2023-04-06T14:05:30;6.30;;;5.27;;
12459;SDS011;6295;49.452;8.466;2023-04-06T14:09:33;7.43;;;5.30;;
12459;SDS011;6295;49.452;8.466;2023-04-06T14:13:36;5.20;;;4.70;;
12459;SDS011;6295;49.452;8.466;2023-04-06T14:17:40;5.23;;;4.73;;
12459;SDS011;6295;49.452;8.466;2023-04-06T14:21:42;6.13;;;5.33;;
12459;SDS011;6295;49.452;8.466;2023-04-06T14:25:44;5.80;;;5.20;;
12459;SDS011;6295;49.452;8.466;2023-04-06T14:29:47;7.73;;;5.13;;
12459;SDS011;6295;49.452;8.466;2023-04-06T14:33:50;5.63;;;4.97;;
12459;SDS011;6295;49.452;8.466;2023-04-06T14:37:52;7.37;;;5.43;;
12459;SDS011;6295;49.452;8.466;2023-04-06T14:41:58;8.07;;;6.27;;
12459;SDS011;6295;49.452;8.466;2023-04-06T14:46:06;7.97;;;6.27;;
12459;SDS011;6295;49.452;8.466;2023-04-06T14:50:11;6.20;;;5.40;;
12459;SDS011;6295;49.452;8.466;2023-04-06T14:54:14;5.63;;;4.97;;
12459;SDS011;6295;49.452;8.466;2023-04-06T14:58:16;6.73;;;5.47;;
12459;SDS011;6295;49.452;8.466;2023-04-06T15:02:18;4.93;;;4.20;;
12459;SDS011;6295;49.452;8.466;2023-04-06T15:06:21;6.83;;;4.80;;
12459;SDS011;6295;49.452;8.466;2023-04-06T15:10:23;4.13;;;3.73;;
12459;SDS011;6295;49.452;8.466;2023-04-06T15:14:25;5.00;;;4.07;;
12459;SDS011;6295;49.452;8.466;2023-04-06T15:18:28;5.30;;;4.00;;
12459;SDS011;6295;49.452;8.466;2023-04-06T15:22:31;5.40;;;3.93;;
12459;SDS011;6295;49.452;8.466;2023-04-06T15:26:34;4.73;;;3.70;;
12459;SDS011;6295;49.452;8.466;2023-04-06T15:30:37;4.97;;;3.90;;
12459;SDS011;6295;49.452;8.466;2023-04-06T15:34:39;6.27;;;4.40;;
12459;SDS011;6295;49.452;8.466;2023-04-06T15:38:43;4.53;;;4.03;;
12459;SDS011;6295;49.452;8.466;2023-04-06T15:42:46;4.30;;;3.83;;
12459;SDS011;6295;49.452;8.466;2023-04-06T15:46:52;4.37;;;3.60;;
12459;SDS011;6295;49.452;8.466;2023-04-06T15:50:56;4.73;;;4.20;;
12459;SDS011;6295;49.452;8.466;2023-04-06T15:55:00;6.60;;;5.00;;
12459;SDS011;6295;49.452;8.466;2023-04-06T15:59:03;5.27;;;4.40;;
12459;SDS011;6295;49.452;8.466;2023-04-06T16:03:05;6.83;;;4.80;;
12459;SDS011;6295;49.452;8.466;2023-04-06T16:07:08;6.43;;;4.60;;
12459;SDS011;6295;49.452;8.466;2023-04-06T16:11:12;4.73;;;4.23;;
12459;SDS011;6295;49.452;8.466;2023-04-06T16:15:14;6.10;;;4.80;;
12459;SDS011;6295;49.452;8.466;2023-04-06T16:19:17;5.60;;;4.10;;
12459;SDS011;6295;49.452;8.466;2023-04-06T16:23:22;4.33;;;3.77;;
12459;SDS011;6295;49.452;8.466;2023-04-06T16:27:26;4.40;;;3.57;;
12459;SDS011;6295;49.452;8.466;2023-04-06T16:31:28;3.43;;;2.93;;
12459;SDS011;6295;49.452;8.466;2023-04-06T16:35:32;3.20;;;2.77;;
12459;SDS011;6295;49.452;8.466;2023-04-06T16:39:34;3.60;;;3.20;;
12459;SDS011;6295;49.452;8.466;2023-04-06T16:43:38;4.73;;;3.33;;
12459;SDS011;6295;49.452;8.466;2023-04-06T16:47:40;4.33;;;3.80;;
12459;SDS011;6295;49.452;8.466;2023-04-06T16:51:42;3.33;;;3.03;;
12459;SDS011;6295;49.452;8.466;2023-04-06T16:55:44;5.20;;;3.53;;
12459;SDS011;6295;49.452;8.466;2023-04-06T16:59:48;3.90;;;3.30;;
12459;SDS011;6295;49.452;8.466;2023-04-06T17:03:50;4.57;;;3.80;;
12459;SDS011;6295;49.452;8.466;2023-04-06T17:07:52;4.20;;;3.77;;
12459;SDS011;6295;49.452;8.466;2023-04-06T17:11:55;5.07;;;3.87;;
12459;SDS011;6295;49.452;8.466;2023-04-06T17:16:00;3.33;;;3.03;;
12459;SDS011;6295;49.452;8.466;2023-04-06T17:20:03;3.77;;;3.30;;
12459;SDS011;6295;49.452;8.466;2023-04-06T17:24:06;5.80;;;3.30;;
12459;SDS011;6295;49.452;8.466;2023-04-06T17:28:10;3.77;;;3.37;;
12459;SDS011;6295;49.452;8.466;2023-04-06T17:32:14;4.47;;;3.40;;
12459;SDS011;6295;49.452;8.466;2023-04-06T17:36:16;3.57;;;3.27;;
12459;SDS011;6295;49.452;8.466;2023-04-06T17:40:18;4.40;;;3.27;;
12459;SDS011;6295;49.452;8.466;2023-04-06T17:44:21;4.37;;;3.97;;
12459;SDS011;6295;49.452;8.466;2023-04-06T17:48:24;4.43;;;3.40;;
12459;SDS011;6295;49.452;8.466;2023-04-06T17:52:28;4.50;;;3.73;;
12459;SDS011;6295;49.452;8.466;2023-04-06T17:56:31;4.13;;;3.53;;
